Reklama

Seznam meteostanic a jejich METAR

Vyhledat místa podle abecedy:
A B C D E F G H I J K L M N O P Q R S T U V W X Y Z

Filtrovat:

ID stanice:
a/nebo
Název místa (fulltext):
 
Místo (ID)Naposledy načteno 
Ústí nad Labem - Kočkov (Usti n/L) 05.12.2019 23:00 UTC Zobrazit data
Místo: Ústí nad Labem - Kočkov
Teplota: -1 °C (pocitová: -11.2 °C)
Vítr: 6 m/s z(e) 190°
Počasí: zataženo
Dohlednost: 4800 m
Zákl. oblačnosti: 8/8 270 m
Vlhkost: 93%
Ústí nad Orlicí (Usti n/O) 05.12.2019 23:00 UTC Zobrazit data
Místo: Ústí nad Orlicí
Teplota: -2 °C (pocitová: -10 °C)
Vítr: 3 m/s z(e) 170°
Počasí: zataženo
Dohlednost: 7 km
Zákl. oblačnosti: 8/8 210 m
Vlhkost: 93%
Ulaanbaatar (ZMUB) 20.02.2019 12:00 UTC Zobrazit METAR
ZMUB 201200Z CAVOK M14/M25 Q1021 NOSIG RMK QFE657.8 33
Uvea Island (NLWW) 05.12.2019 23:00 UTC Zobrazit METAR
NLWW 052300Z 08015KT 9999 SCT023 31/25 Q1010 NOSIG
Uzhhorod (UKLU) Zatím nenačteno  
Reklama

Počasí na Váš email

Emaily jsou bez reklamy a bez spamu



Odhlásit newsletter

Reklama


Lunární kalendář

  • 12.12.
  • 19.12.
  • 26.12.
  • 03.01.



Reklama


Reklama
Povinné ručení
Reklama



Reklama